Dubois, Wyoming
Current Conditions -  °F | °C
As of 6:35 PM on Monday 20 Oct 2014 (Local Time) from KAJL Reporting Station
Broken Clouds Broken Clouds  
Wind Chill: 40°   Ceiling: 6000
Heat Index: 45°   Visibility: 10mi
Dew Point: 24°   Wind: 8mph
Humidity: 44%   Direction: 230°SW
Pressure: 30.25"   Gusts: NA
Location:  43.53°N, 109.63°W
Report Text: KAJL 210035Z AUTO 23007KT 190V290 10SM BKN060 07/M04 A3025 RMK AO2 T00711045
Loading
Personal Weather Stations






























Interactive Weather Map New forecast layout! Learn more

10-Day Weather Forecast

Advertisements
Track Severe Weather on mobile